Currently 60°F in Riverside (Orangecrest), California, USA
60°F
72°F / 56°F
1 mph W
0.00"
Monday, October 14, 2019 9:24 PM PDT

Riverside (Orangecrest), California Weather Summary
Last 36 Hours

Temperature Winds Hourly Humidity Dewpoint
Time Report Norm Report Norm Max Gusts Precip. Rpt. Norm Rpt. Norm Pressure
1Mon 09:24 PM  60.4°F  66°F  1 mph W  3 mph  6 mph  0.00"  74%  42%  52°F  41°F  29.98"
Mon 09:00 PM  61.0°F  67°F  4 mph W  3 mph  10 mph  0.00"  73%  41%  52°F  41°F  29.96"
Mon 08:00 PM  63.0°F  68°F  5 mph W  3 mph  9 mph  0.00"  67%  37%  51°F  40°F  29.95"
Mon 07:00 PM  65.2°F  70°F  4 mph W  4 mph  10 mph  0.00"  59%  34%  50°F  39°F  29.93"
Mon 06:00 PM  68.5°F  73°F  7 mph W  6 mph  11 mph  0.00"  49%  29%  48°F  38°F  29.92"
Mon 05:00 PM  71.5°F  76°F  5 mph W  7 mph  12 mph  0.00"  37%  24%  43°F  35°F  29.91"
2Mon 04:29 PM  72.4°F  77°F  4 mph W  6 mph  10 mph  ----  35%  23%  42°F  34°F  29.91"
Mon 04:00 PM  71.8°F  77°F  4 mph W  6 mph  13 mph  0.00"  36%  22%  43°F  33°F  29.91"
Mon 03:00 PM  71.3°F  77°F  2 mph W  7 mph  11 mph  0.00"  36%  21%  42°F  33°F  29.91"
Mon 02:00 PM  69.7°F  77°F  1 mph W  7 mph  10 mph  0.00"  41%  21%  44°F  32°F  29.92"
Mon 01:00 PM  68.2°F  75°F  5 mph W  6 mph  11 mph  0.00"  45%  23%  45°F  33°F  29.94"
Mon 12:00 PM  65.5°F  74°F  5 mph W  6 mph  10 mph  0.00"  51%  25%  46°F  34°F  29.96"
Mon 11:00 AM  64.3°F  72°F  1 mph W  5 mph  7 mph  0.00"  54%  27%  47°F  35°F  29.97"
Mon 10:00 AM  61.9°F  69°F  2 mph W  4 mph  6 mph  0.00"  62%  34%  48°F  38°F  29.98"
Mon 09:00 AM  58.4°F  65°F  4 mph W  3 mph  6 mph  0.00"  71%  41%  49°F  40°F  29.98"
Mon 08:00 AM  56.7°F  62°F  calm  2 mph  4 mph  0.00"  82%  45%  51°F  40°F  29.96"
Mon 07:00 AM  56.3°F  61°F  3 mph W  3 mph  4 mph  0.00"  87%  46%  52°F  39°F  29.94"
Mon 06:00 AM  56.9°F  61°F  calm  3 mph  4 mph  0.00"  85%  46%  52°F  39°F  29.93"
Mon 05:00 AM  56.8°F  61°F  calm  2 mph  3 mph  0.00"  82%  47%  51°F  40°F  29.92"
Mon 04:00 AM  56.7°F  61°F  calm  2 mph  4 mph  0.00"  84%  47%  52°F  40°F  29.92"
Mon 03:00 AM  56.7°F  62°F  calm  3 mph  4 mph  0.00"  86%  46%  52°F  40°F  29.91"
Mon 02:00 AM  56.2°F  63°F  calm  2 mph  6 mph  0.00"  87%  46%  52°F  41°F  29.92"
Mon 01:00 AM  55.8°F  63°F  1 mph W  2 mph  5 mph  0.00"  89%  46%  52°F  41°F  29.91"
3Mon 12:25 AM  55.5°F  63°F  2 mph W  2 mph  5 mph  ----  89%  47%  52°F  42°F  29.91"
Mon 12:00 AM  56.2°F  64°F  2 mph W  2 mph  3 mph  0.00"  86%  46%  52°F  42°F  29.92"
Sun 11:00 PM  57.7°F  64°F  calm  3 mph  none  0.00"  82%  46%  52°F  42°F  29.91"
Sun 10:00 PM  58.8°F  65°F  calm  3 mph  7 mph  0.00"  78%  44%  52°F  42°F  29.90"
Sun 09:00 PM  59.9°F  67°F  3 mph W  3 mph  12 mph  0.00"  76%  42%  52°F  42°F  29.89"
Sun 08:00 PM  62.3°F  68°F  6 mph W  3 mph  11 mph  0.00"  67%  38%  51°F  40°F  29.87"
Sun 07:00 PM  64.7°F  70°F  5 mph W  4 mph  10 mph  0.00"  59%  34%  50°F  39°F  29.86"
Sun 06:00 PM  69.6°F  73°F  5 mph W  6 mph  13 mph  0.00"  46%  29%  47°F  38°F  29.84"
Sun 05:00 PM  72.6°F  76°F  7 mph W  7 mph  15 mph  0.00"  39%  24%  45°F  35°F  29.83"
Sun 04:00 PM  74.4°F  77°F  5 mph W  6 mph  15 mph  0.00"  34%  21%  43°F  33°F  29.83"
Sun 03:00 PM  75.9°F  78°F  7 mph W  7 mph  14 mph  0.00"  23%  20%  35°F  32°F  29.83"
Sun 02:00 PM  76.1°F  77°F  6 mph W  6 mph  13 mph  0.00"  20%  20%  30°F  31°F  29.84"
Sun 01:00 PM  74.1°F  76°F  4 mph W  6 mph  11 mph  0.00"  22%  22%  31°F  33°F  29.86"
Sun 12:00 PM  73.2°F  74°F  4 mph W  6 mph  8 mph  0.00"  23%  24%  32°F  34°F  29.89"
Sun 11:00 AM  69.9°F  72°F  3 mph W  5 mph  8 mph  0.00"  29%  27%  35°F  35°F  29.91"
Sun 10:00 AM  70.2°F  68°F  calm  4 mph  4 mph  0.00"  28%  35%  35°F  38°F  29.91"

  1. Current weather data. No green row appears if the current weather data is also the high or low for the current day.
  2. High temperature for the current day.
  3. Low temperature for the current day.

The Riverside (Orangecrest), California weather pages are a service of WeatherCurrents.
Copyright ©2019  WeatherCurrents. All rights reserved. - Submit questions and comments - Privacy Policy

This page automatically refreshes every 10 minutes.